Pell City, Alabama
Current Conditions -  °F | °C
As of 8:15 AM on Saturday 22 Nov 2014 (Local Time) from KASN Reporting Station
Clear Clear  
Wind Chill: 46°   Ceiling: Unl
Heat Index: 50°   Visibility: 7mi
Dew Point: 38°   Wind: 9mph
Humidity: 64%   Direction: 90°E
Pressure: 30.41"   Gusts: NA
Location:  33.59°N, 86.29°W
Report Text: KASN 221415Z AUTO 09008KT 7SM CLR 10/03 A3041 RMK AO2 T00980033
Loading
Personal Weather Stations






























Interactive Weather Map New forecast layout! Learn more

10-Day Weather Forecast

Advertisements
Track Severe Weather on mobile